createdAt,value
2023-06-07T00:00:57.888Z,101551.59
2023-06-07T00:03:26.014Z,101546.28
2023-06-07T00:05:53.064Z,101555.59
2023-06-07T00:08:19.875Z,101551.16
2023-06-07T00:10:46.479Z,101551.53
2023-06-07T00:13:13.147Z,101544.53
2023-06-07T00:15:39.753Z,101546.63
2023-06-07T00:18:06.583Z,101538.59
2023-06-07T00:20:34.634Z,101544.28
2023-06-07T00:23:01.327Z,101534.53
2023-06-07T00:25:29.106Z,101536.63
2023-06-07T00:27:55.744Z,101531.34
2023-06-07T00:30:22.431Z,101534.28
2023-06-07T00:32:49.242Z,101527.91
2023-06-07T00:35:15.888Z,101531.72
2023-06-07T00:37:43.942Z,101532.28
2023-06-07T00:40:11.483Z,101533.38
2023-06-07T00:42:38.281Z,101538.19
2023-06-07T00:45:05.866Z,101528.25
2023-06-07T00:47:32.952Z,101529.50
2023-06-07T00:49:59.899Z,101532.44
2023-06-07T00:52:27.265Z,101529.91
2023-06-07T00:54:55.812Z,101538.31
2023-06-07T00:57:22.650Z,101536.44
2023-06-07T00:59:49.453Z,101537.47
2023-06-07T01:02:16.444Z,101538.50
2023-06-07T01:04:43.893Z,101541.25
2023-06-07T01:07:10.615Z,101540.63
2023-06-07T01:09:37.423Z,101540.81
2023-06-07T01:12:07.155Z,101543.72
2023-06-07T01:14:35.102Z,101543.72
2023-06-07T01:17:03.641Z,101543.09
2023-06-07T01:19:31.283Z,101538.44
2023-06-07T01:22:02.942Z,101537.59
2023-06-07T01:24:31.177Z,101531.44
2023-06-07T01:26:58.657Z,101538.81
2023-06-07T01:29:26.595Z,101535.25
2023-06-07T01:31:55.773Z,101547.06
2023-06-07T01:34:24.050Z,101538.19
2023-06-07T01:36:51.446Z,101533.72
2023-06-07T01:39:19.829Z,101534.75
2023-06-07T01:41:50.448Z,101538.56
2023-06-07T01:44:18.432Z,101531.38
2023-06-07T01:46:45.572Z,101530.72
2023-06-07T01:49:13.840Z,101526.28
2023-06-07T01:51:40.446Z,101519.09
2023-06-07T01:54:07.569Z,101522.00
2023-06-07T01:56:44.267Z,101522.00
2023-06-07T01:59:19.649Z,101518.63
2023-06-07T02:01:58.930Z,101519.00
2023-06-07T02:04:28.440Z,101507.38
2023-06-07T02:07:00.380Z,101519.38
2023-06-07T02:09:29.034Z,101516.66
2023-06-07T02:11:58.183Z,101516.81
2023-06-07T02:14:26.373Z,101519.56
2023-06-07T02:16:53.043Z,101520.66
2023-06-07T02:19:19.766Z,101515.34
2023-06-07T02:21:46.443Z,101512.59
2023-06-07T02:24:13.203Z,101511.88
2023-06-07T02:26:40.291Z,101515.69
2023-06-07T02:29:06.953Z,101515.03
2023-06-07T02:31:35.011Z,101516.06
2023-06-07T02:34:01.773Z,101517.94
2023-06-07T02:36:28.602Z,101512.47
2023-06-07T02:38:55.346Z,101516.28
2023-06-07T02:41:22.187Z,101517.50
2023-06-07T02:43:48.845Z,101520.44
2023-06-07T02:46:15.699Z,101510.69
2023-06-07T02:48:43.717Z,101512.59
2023-06-07T02:51:10.329Z,101517.44
2023-06-07T02:53:36.976Z,101507.66
2023-06-07T02:56:03.758Z,101516.97
2023-06-07T02:58:30.429Z,101513.56
2023-06-07T03:00:57.159Z,101514.59
2023-06-07T03:03:24.100Z,101512.25
2023-06-07T03:05:52.489Z,101521.50
2023-06-07T03:08:19.221Z,101517.25
2023-06-07T03:10:45.836Z,101519.34
2023-06-07T03:13:13.335Z,101521.22
2023-06-07T03:15:40.072Z,101519.53
2023-06-07T03:18:06.786Z,101526.06
2023-06-07T03:20:33.797Z,101527.09
2023-06-07T03:23:02.534Z,101527.50
2023-06-07T03:25:29.370Z,101531.28
2023-06-07T03:27:56.051Z,101532.31
2023-06-07T03:30:22.729Z,101533.53
2023-06-07T03:32:49.539Z,101532.69
2023-06-07T03:35:16.206Z,101537.31
2023-06-07T03:37:42.905Z,101538.34
2023-06-07T03:40:12.209Z,101544.06
2023-06-07T03:42:38.935Z,101544.06
2023-06-07T03:45:07.078Z,101543.19
2023-06-07T03:47:33.924Z,101541.97
2023-06-07T03:50:00.666Z,101536.09
2023-06-07T03:52:27.278Z,101535.34
2023-06-07T03:54:54.061Z,101533.72
2023-06-07T03:57:22.324Z,101529.94
2023-06-07T03:59:48.991Z,101536.47
2023-06-07T04:02:15.614Z,101528.41
2023-06-07T04:04:42.331Z,101531.16
2023-06-07T04:07:09.021Z,101529.44
2023-06-07T04:09:36.087Z,101528.59
2023-06-07T04:12:02.920Z,101527.78
2023-06-07T04:14:30.992Z,101528.59
2023-06-07T04:16:57.703Z,101527.38
2023-06-07T04:19:24.410Z,101531.84
2023-06-07T04:21:51.091Z,101532.88
2023-06-07T04:24:18.051Z,101537.31
2023-06-07T04:26:44.781Z,101533.34
2023-06-07T04:29:11.565Z,101536.53
2023-06-07T04:31:41.332Z,101533.44
2023-06-07T04:34:09.654Z,101533.91
2023-06-07T04:36:36.315Z,101533.03
2023-06-07T04:39:03.051Z,101532.66
2023-06-07T04:41:29.745Z,101530.94
2023-06-07T04:43:56.506Z,101532.84
2023-06-07T04:46:23.238Z,101537.09
2023-06-07T04:48:51.265Z,101533.97
2023-06-07T04:51:17.948Z,101537.75
2023-06-07T04:53:44.629Z,101537.75
2023-06-07T04:56:11.492Z,101536.34
2023-06-07T04:58:38.180Z,101539.09
2023-06-07T05:01:04.883Z,101543.31
2023-06-07T05:03:32.698Z,101540.19
2023-06-07T05:06:01.090Z,101534.06
2023-06-07T05:08:27.843Z,101542.06
2023-06-07T05:10:54.495Z,101536.25
2023-06-07T05:13:21.147Z,101542.59
2023-06-07T05:15:47.836Z,101545.81
2023-06-07T05:18:14.526Z,101544.38
2023-06-07T05:20:41.387Z,101545.69
2023-06-07T05:23:09.434Z,101547.41
2023-06-07T05:25:36.066Z,101543.41
2023-06-07T05:28:12.481Z,101546.22
2023-06-07T05:30:41.013Z,101542.06
2023-06-07T05:33:08.052Z,101548.63
2023-06-07T05:35:34.882Z,101546.38
2023-06-07T05:38:01.819Z,101543.69
2023-06-07T05:40:30.980Z,101549.50
2023-06-07T05:42:57.992Z,101545.78
2023-06-07T05:45:25.170Z,101543.75
2023-06-07T05:47:52.049Z,101537.44
2023-06-07T05:50:19.035Z,101546.06
2023-06-07T05:52:45.641Z,101545.69
2023-06-07T05:55:12.499Z,101545.53
2023-06-07T05:57:40.522Z,101545.00
2023-06-07T06:00:08.594Z,101540.81
2023-06-07T06:02:35.418Z,101534.50
2023-06-07T06:05:02.601Z,101539.44
2023-06-07T06:07:29.422Z,101545.22
2023-06-07T06:09:56.089Z,101540.81
2023-06-07T06:12:22.701Z,101548.25
2023-06-07T06:14:51.865Z,101546.66
2023-06-07T06:17:18.618Z,101548.44
2023-06-07T06:19:45.762Z,101544.03
2023-06-07T06:22:12.487Z,101548.28
2023-06-07T06:24:39.286Z,101542.59
2023-06-07T06:27:06.808Z,101544.72
2023-06-07T06:29:33.534Z,101550.69
2023-06-07T06:32:03.019Z,101550.50
2023-06-07T06:34:29.879Z,101546.94
2023-06-07T06:36:56.539Z,101542.09
2023-06-07T06:39:23.367Z,101547.81
2023-06-07T06:41:50.083Z,101543.34
2023-06-07T06:44:17.023Z,101558.44
2023-06-07T06:46:43.743Z,101545.91
2023-06-07T06:49:13.334Z,101549.31
2023-06-07T06:51:42.522Z,101553.50
2023-06-07T06:54:11.024Z,101551.38
2023-06-07T06:56:37.805Z,101549.88
2023-06-07T06:59:04.624Z,101555.19
2023-06-07T07:01:44.209Z,101554.50
2023-06-07T07:04:12.835Z,101552.53
2023-06-07T07:06:40.066Z,101552.72
2023-06-07T07:09:06.675Z,101547.16
2023-06-07T07:11:33.362Z,101548.38
2023-06-07T07:14:00.028Z,101550.00
2023-06-07T07:16:26.849Z,101546.09
2023-06-07T07:18:53.759Z,101543.03
2023-06-07T07:21:21.905Z,101544.59
2023-06-07T07:23:48.888Z,101546.38
2023-06-07T07:26:15.795Z,101557.53
2023-06-07T07:28:42.399Z,101549.59
2023-06-07T07:31:09.214Z,101554.16
2023-06-07T07:33:35.911Z,101547.47
2023-06-07T07:36:02.887Z,101539.19
2023-06-07T07:38:30.902Z,101557.28
2023-06-07T07:40:57.561Z,101559.00
2023-06-07T07:43:24.268Z,101546.69
2023-06-07T07:45:50.939Z,101556.66
2023-06-07T07:48:17.636Z,101562.19
2023-06-07T07:50:44.323Z,101551.28
2023-06-07T07:53:10.974Z,101554.03
2023-06-07T07:55:38.982Z,101545.25
2023-06-07T07:58:06.078Z,101541.97
2023-06-07T08:00:32.733Z,101541.66
2023-06-07T08:02:59.477Z,101545.66
2023-06-07T08:05:26.144Z,101546.66
2023-06-07T08:07:54.726Z,101540.88
2023-06-07T08:10:21.535Z,101533.72
2023-06-07T08:12:49.684Z,101537.50
2023-06-07T08:15:16.674Z,101546.41
2023-06-07T08:17:43.337Z,101536.09
2023-06-07T08:20:11.487Z,101541.34
2023-06-07T08:22:38.413Z,101536.38
2023-06-07T08:25:06.069Z,101526.53
2023-06-07T08:27:32.732Z,101533.91
2023-06-07T08:30:00.842Z,101528.59
2023-06-07T08:32:27.603Z,101530.66
2023-06-07T08:34:54.273Z,101535.28
2023-06-07T08:37:22.174Z,101539.97
2023-06-07T08:39:48.830Z,101532.34
2023-06-07T08:42:15.692Z,101528.38
2023-06-07T08:44:42.332Z,101533.16
2023-06-07T08:47:12.569Z,101528.94
2023-06-07T08:49:41.131Z,101542.34
2023-06-07T08:52:16.346Z,101530.63
2023-06-07T08:54:46.717Z,101540.28
2023-06-07T08:57:15.780Z,101535.09
2023-06-07T08:59:44.557Z,101532.47
2023-06-07T09:02:13.152Z,101530.44
2023-06-07T09:04:40.791Z,101532.16
2023-06-07T09:07:07.795Z,101529.41
2023-06-07T09:09:35.327Z,101533.47
2023-06-07T09:12:02.222Z,101529.44
2023-06-07T09:14:30.321Z,101531.34
2023-06-07T09:16:58.367Z,101532.06
2023-06-07T09:19:35.037Z,101531.00
2023-06-07T09:22:02.696Z,101533.41
2023-06-07T09:24:30.560Z,101531.84
2023-06-07T09:26:58.070Z,101519.53
2023-06-07T09:29:25.156Z,101523.63
2023-06-07T09:31:51.960Z,101527.97
2023-06-07T09:34:22.991Z,101526.78
2023-06-07T09:36:52.423Z,101514.94
2023-06-07T09:39:23.335Z,101514.94
2023-06-07T09:41:50.647Z,101509.78
2023-06-07T09:44:24.636Z,101513.25
2023-06-07T09:46:51.685Z,101508.44
2023-06-07T09:49:27.710Z,101505.25
2023-06-07T09:51:56.126Z,101513.09
2023-06-07T09:54:35.996Z,101513.59
2023-06-07T09:57:02.887Z,101513.59
2023-06-07T09:59:29.642Z,101508.63
2023-06-07T10:01:56.486Z,101515.16
2023-06-07T10:04:23.397Z,101510.22
2023-06-07T10:06:51.345Z,101514.25
2023-06-07T10:09:21.877Z,101504.72
2023-06-07T10:11:54.170Z,101508.53
2023-06-07T10:14:24.958Z,101504.44
2023-06-07T10:16:55.041Z,101507.31
2023-06-07T10:19:27.120Z,101495.41
2023-06-07T10:21:56.877Z,101492.53
2023-06-07T10:24:30.807Z,101499.41
2023-06-07T10:27:04.973Z,101493.06
2023-06-07T10:29:38.666Z,101496.94
2023-06-07T10:32:09.785Z,101499.16
2023-06-07T10:34:38.474Z,101490.81
2023-06-07T10:37:05.980Z,101495.63
2023-06-07T10:39:34.491Z,101487.50
2023-06-07T10:42:01.564Z,101488.25
2023-06-07T10:44:29.581Z,101483.22
2023-06-07T10:47:27.864Z,101480.53
2023-06-07T10:49:55.005Z,101485.41
2023-06-07T10:52:22.365Z,101486.69
2023-06-07T10:54:50.760Z,101478.84
2023-06-07T10:57:32.638Z,101478.34
2023-06-07T11:00:27.825Z,101481.69
2023-06-07T11:03:35.781Z,101473.31
2023-06-07T11:06:07.320Z,101476.25
2023-06-07T11:08:34.982Z,101464.06
2023-06-07T11:11:04.014Z,101467.50
2023-06-07T11:14:09.700Z,101463.84
2023-06-07T11:16:38.182Z,101458.50
2023-06-07T11:19:08.365Z,101458.56
2023-06-07T11:21:59.839Z,101451.44
2023-06-07T11:24:26.985Z,101454.66
2023-06-07T11:26:55.045Z,101453.78
2023-06-07T11:29:22.345Z,101466.75
2023-06-07T11:31:56.265Z,101463.66
2023-06-07T11:34:23.083Z,101452.50
2023-06-07T11:36:49.758Z,101455.19
2023-06-07T11:39:16.388Z,101452.19
2023-06-07T11:41:43.886Z,101454.19
2023-06-07T11:44:13.291Z,101446.84
2023-06-07T11:46:40.092Z,101450.16
2023-06-07T11:49:08.768Z,101439.94
2023-06-07T11:51:35.556Z,101440.03
2023-06-07T11:54:02.256Z,101433.47
2023-06-07T11:56:28.954Z,101439.38
2023-06-07T11:58:55.817Z,101438.19
2023-06-07T12:01:23.936Z,101427.09
2023-06-07T12:03:51.474Z,101424.38
2023-06-07T12:06:18.260Z,101424.97
2023-06-07T12:08:44.961Z,101423.34
2023-06-07T12:11:11.641Z,101426.75
2023-06-07T12:13:38.701Z,101420.56
2023-06-07T12:16:06.467Z,101415.56
2023-06-07T12:18:34.849Z,101410.25
2023-06-07T12:21:03.507Z,101407.47
2023-06-07T12:23:30.357Z,101402.72
2023-06-07T12:26:07.072Z,101402.69
2023-06-07T12:28:33.834Z,101410.97
2023-06-07T12:31:00.677Z,101401.47
2023-06-07T12:33:27.821Z,101404.88
2023-06-07T12:35:57.113Z,101388.75
2023-06-07T12:38:24.741Z,101392.78
2023-06-07T12:40:51.712Z,101389.44
2023-06-07T12:43:18.468Z,101387.19
2023-06-07T12:45:45.252Z,101402.25
2023-06-07T12:48:12.047Z,101400.19
2023-06-07T12:50:38.825Z,101393.75
2023-06-07T12:53:07.194Z,101398.06
2023-06-07T12:55:33.918Z,101393.31
2023-06-07T12:58:00.601Z,101391.84
2023-06-07T13:00:27.402Z,101380.06
2023-06-07T13:02:54.226Z,101376.94
2023-06-07T13:05:20.941Z,101379.22
2023-06-07T13:07:47.727Z,101376.44
2023-06-07T13:10:15.833Z,101386.56
2023-06-07T13:12:42.531Z,101377.91
2023-06-07T13:15:10.650Z,101380.41
2023-06-07T13:17:37.534Z,101381.84
2023-06-07T13:20:05.531Z,101382.72
2023-06-07T13:22:32.565Z,101377.44
2023-06-07T13:24:59.538Z,101374.34
2023-06-07T13:27:27.661Z,101361.25
2023-06-07T13:29:54.343Z,101359.00
2023-06-07T13:32:21.242Z,101359.56
2023-06-07T13:34:47.940Z,101354.25
2023-06-07T13:37:14.852Z,101356.75
2023-06-07T13:39:41.714Z,101352.25
2023-06-07T13:42:08.877Z,101349.47
2023-06-07T13:44:36.888Z,101352.28
2023-06-07T13:47:04.067Z,101355.34
2023-06-07T13:49:30.841Z,101358.72
2023-06-07T13:51:57.448Z,101344.72
2023-06-07T13:54:24.244Z,101346.94
2023-06-07T13:56:51.218Z,101348.63
2023-06-07T13:59:17.991Z,101343.00
2023-06-07T14:01:46.108Z,101340.50
2023-06-07T14:04:12.987Z,101337.97
2023-06-07T14:06:39.813Z,101343.88
2023-06-07T14:09:06.958Z,101334.38
2023-06-07T14:11:33.631Z,101336.88
2023-06-07T14:14:00.332Z,101336.84
2023-06-07T14:16:28.693Z,101336.84
2023-06-07T14:18:57.122Z,101326.50
2023-06-07T14:21:24.477Z,101329.59
2023-06-07T14:23:51.195Z,101337.97
2023-06-07T14:26:17.890Z,101325.94
2023-06-07T14:28:44.693Z,101332.38
2023-06-07T14:31:11.525Z,101325.63
2023-06-07T14:33:38.367Z,101328.97
2023-06-07T14:36:06.945Z,101333.41
2023-06-07T14:38:33.660Z,101325.88
2023-06-07T14:41:00.347Z,101319.47
2023-06-07T14:43:27.030Z,101319.19
2023-06-07T14:45:53.761Z,101325.63
2023-06-07T14:48:20.496Z,101324.50
2023-06-07T14:50:47.118Z,101320.59
2023-06-07T14:53:15.486Z,101317.00
2023-06-07T14:55:42.169Z,101316.72
2023-06-07T14:58:08.805Z,101307.19
2023-06-07T15:00:35.535Z,101312.19
2023-06-07T15:03:02.433Z,101311.09
2023-06-07T15:05:29.536Z,101306.06
2023-06-07T15:07:56.390Z,101304.66
2023-06-07T15:10:24.439Z,101304.38
2023-06-07T15:12:51.106Z,101310.50
2023-06-07T15:15:17.892Z,101305.75
2023-06-07T15:17:45.681Z,101310.25
2023-06-07T15:20:13.914Z,101313.91
2023-06-07T15:22:40.672Z,101306.06
2023-06-07T15:25:08.872Z,101309.41
2023-06-07T15:27:37.690Z,101293.75
2023-06-07T15:30:05.710Z,101294.84
2023-06-07T15:32:32.472Z,101297.34
2023-06-07T15:34:59.302Z,101289.22
2023-06-07T15:37:26.057Z,101291.47
2023-06-07T15:39:52.744Z,101296.50
2023-06-07T15:42:19.403Z,101293.75
2023-06-07T15:44:47.516Z,101297.66
2023-06-07T15:47:15.703Z,101296.00
2023-06-07T15:49:42.382Z,101312.22
2023-06-07T15:52:09.017Z,101293.19
2023-06-07T15:54:35.690Z,101304.94
2023-06-07T15:57:02.540Z,101301.56
2023-06-07T15:59:29.150Z,101305.47
2023-06-07T16:01:57.208Z,101304.84
2023-06-07T16:04:23.895Z,101296.16
2023-06-07T16:06:50.605Z,101300.88
2023-06-07T16:09:17.262Z,101293.84
2023-06-07T16:11:43.940Z,101295.50
2023-06-07T16:14:11.319Z,101292.34
2023-06-07T16:16:38.194Z,101290.38
2023-06-07T16:19:06.892Z,101287.88
2023-06-07T16:21:33.672Z,101295.22
2023-06-07T16:24:00.442Z,101286.19
2023-06-07T16:26:27.125Z,101290.31
2023-06-07T16:28:53.751Z,101292.22
2023-06-07T16:31:20.530Z,101292.72
2023-06-07T16:33:47.238Z,101293.50
2023-06-07T16:36:15.669Z,101291.72
2023-06-07T16:38:42.342Z,101293.59
2023-06-07T16:41:09.016Z,101289.72
2023-06-07T16:43:35.696Z,101285.00
2023-06-07T16:46:02.471Z,101285.28
2023-06-07T16:48:29.157Z,101286.13
2023-06-07T16:50:55.863Z,101281.88
2023-06-07T16:53:23.953Z,101286.88
2023-06-07T16:55:50.677Z,101292.72
2023-06-07T16:58:17.349Z,101276.75
2023-06-07T17:00:44.144Z,101286.19
2023-06-07T17:03:10.873Z,101282.50
2023-06-07T17:05:37.571Z,101286.34
2023-06-07T17:08:04.798Z,101282.56
2023-06-07T17:10:32.868Z,101280.22
2023-06-07T17:12:59.548Z,101291.28
2023-06-07T17:15:26.422Z,101288.94
2023-06-07T17:17:53.100Z,101289.44
2023-06-07T17:20:19.838Z,101292.69
2023-06-07T17:22:46.537Z,101286.22
2023-06-07T17:25:13.259Z,101290.28
2023-06-07T17:27:41.351Z,101284.38
2023-06-07T17:30:09.189Z,101287.09
2023-06-07T17:32:35.898Z,101290.09
2023-06-07T17:35:02.756Z,101290.03
2023-06-07T17:37:29.470Z,101289.13
2023-06-07T17:39:56.142Z,101282.66
2023-06-07T17:42:22.935Z,101279.81
2023-06-07T17:44:51.627Z,101286.72
2023-06-07T17:47:18.384Z,101291.97
2023-06-07T17:49:46.161Z,101289.72
2023-06-07T17:52:21.576Z,101293.00
2023-06-07T17:54:49.422Z,101290.13
2023-06-07T17:57:16.626Z,101299.81
2023-06-07T17:59:43.354Z,101295.63
2023-06-07T18:02:11.535Z,101296.13
2023-06-07T18:04:38.456Z,101294.38
2023-06-07T18:07:05.889Z,101298.19
2023-06-07T18:09:32.525Z,101297.59
2023-06-07T18:11:59.329Z,101297.84
2023-06-07T18:14:26.052Z,101287.28
2023-06-07T18:16:52.723Z,101300.63
2023-06-07T18:19:20.832Z,101293.06
2023-06-07T18:21:47.545Z,101289.94
2023-06-07T18:24:14.388Z,101292.41
2023-06-07T18:26:41.235Z,101296.78
2023-06-07T18:29:07.908Z,101290.00
2023-06-07T18:31:34.566Z,101283.56
2023-06-07T18:34:01.275Z,101290.72
2023-06-07T18:36:29.581Z,101286.78
2023-06-07T18:38:56.254Z,101292.81
2023-06-07T18:41:23.084Z,101292.44
2023-06-07T18:43:49.974Z,101301.31
2023-06-07T18:46:17.768Z,101294.56
2023-06-07T18:48:46.730Z,101301.13
2023-06-07T18:51:13.410Z,101301.78
2023-06-07T18:53:41.432Z,101301.97
2023-06-07T18:56:08.150Z,101310.19
2023-06-07T18:58:34.797Z,101302.28
2023-06-07T19:01:01.504Z,101309.09
2023-06-07T19:03:28.366Z,101316.72
2023-06-07T19:05:55.128Z,101312.38
2023-06-07T19:08:21.907Z,101319.75
2023-06-07T19:10:49.986Z,101321.84
2023-06-07T19:13:16.624Z,101323.56
2023-06-07T19:15:43.534Z,101325.88
2023-06-07T19:18:10.237Z,101333.50
2023-06-07T19:20:37.055Z,101338.59
2023-06-07T19:23:03.761Z,101347.53
2023-06-07T19:25:30.420Z,101348.38
2023-06-07T19:27:58.495Z,101355.84
2023-06-07T19:30:25.127Z,101358.53
2023-06-07T19:32:51.870Z,101363.09
2023-06-07T19:35:18.716Z,101366.59
2023-06-07T19:37:45.510Z,101379.97
2023-06-07T19:40:16.851Z,101375.63
2023-06-07T19:42:44.857Z,101389.56
2023-06-07T19:45:12.966Z,101382.47
2023-06-07T19:47:39.947Z,101383.38
2023-06-07T19:50:07.780Z,101392.38
2023-06-07T19:52:34.549Z,101386.97
2023-06-07T19:55:01.282Z,101402.22
2023-06-07T19:57:28.008Z,101405.94
2023-06-07T19:59:54.794Z,101394.97
2023-06-07T20:02:23.084Z,101406.75
2023-06-07T20:04:49.800Z,101404.91
2023-06-07T20:07:16.492Z,101411.41
2023-06-07T20:09:43.193Z,101413.16
2023-06-07T20:12:11.475Z,101413.63
2023-06-07T20:14:38.191Z,101420.94
2023-06-07T20:17:05.616Z,101424.59
2023-06-07T20:19:33.759Z,101420.22
2023-06-07T20:22:00.485Z,101422.84
2023-06-07T20:24:27.230Z,101420.38
2023-06-07T20:26:53.863Z,101424.09
2023-06-07T20:29:20.611Z,101420.06
2023-06-07T20:31:48.710Z,101415.25
2023-06-07T20:34:15.549Z,101417.84
2023-06-07T20:36:44.052Z,101417.69
2023-06-07T20:39:10.774Z,101410.06
2023-06-07T20:41:37.472Z,101419.91
2023-06-07T20:44:04.967Z,101422.28
2023-06-07T20:46:31.875Z,101428.50
2023-06-07T20:48:58.626Z,101420.00
2023-06-07T20:51:25.400Z,101422.59
2023-06-07T20:53:53.424Z,101429.88
2023-06-07T20:56:20.105Z,101429.09
2023-06-07T20:58:46.831Z,101429.97
2023-06-07T21:01:13.612Z,101428.97
2023-06-07T21:03:40.425Z,101428.16
2023-06-07T21:06:07.282Z,101428.00
2023-06-07T21:08:33.910Z,101426.75
2023-06-07T21:11:02.071Z,101428.25
2023-06-07T21:13:28.832Z,101429.78
2023-06-07T21:15:55.539Z,101430.25
2023-06-07T21:18:22.585Z,101429.00
2023-06-07T21:20:49.326Z,101429.41
2023-06-07T21:23:16.037Z,101434.13
2023-06-07T21:25:43.099Z,101435.63
2023-06-07T21:28:11.140Z,101435.84
2023-06-07T21:30:37.859Z,101431.84
2023-06-07T21:33:04.633Z,101435.91
2023-06-07T21:35:32.018Z,101440.78
2023-06-07T21:37:58.678Z,101437.63
2023-06-07T21:40:26.655Z,101432.56
2023-06-07T21:42:53.342Z,101437.69
2023-06-07T21:45:21.492Z,101439.19
2023-06-07T21:47:48.113Z,101442.38
2023-06-07T21:50:14.941Z,101439.84
2023-06-07T21:52:41.613Z,101440.25
2023-06-07T21:55:09.106Z,101443.69
2023-06-07T21:57:35.776Z,101436.91
2023-06-07T22:00:02.614Z,101441.81
2023-06-07T22:02:31.757Z,101437.34
2023-06-07T22:04:59.466Z,101439.47
2023-06-07T22:07:26.290Z,101445.84
2023-06-07T22:09:52.973Z,101436.94
2023-06-07T22:12:19.627Z,101439.06
2023-06-07T22:14:46.216Z,101433.13
2023-06-07T22:17:12.980Z,101432.53
2023-06-07T22:19:41.082Z,101435.50
2023-06-07T22:22:07.800Z,101439.56
2023-06-07T22:24:34.647Z,101446.34
2023-06-07T22:27:01.313Z,101442.09
2023-06-07T22:29:27.951Z,101436.78
2023-06-07T22:31:54.749Z,101439.75
2023-06-07T22:34:21.542Z,101439.16
2023-06-07T22:36:49.562Z,101442.94
2023-06-07T22:39:16.250Z,101434.03
2023-06-07T22:41:42.979Z,101439.97
2023-06-07T22:44:09.949Z,101438.72
2023-06-07T22:46:37.582Z,101441.91
2023-06-07T22:49:04.639Z,101439.59
2023-06-07T22:51:31.794Z,101443.81
2023-06-07T22:54:00.662Z,101434.53
2023-06-07T22:56:27.795Z,101444.91
2023-06-07T22:58:54.634Z,101440.69
2023-06-07T23:01:21.351Z,101434.97
2023-06-07T23:03:48.180Z,101430.28
2023-06-07T23:06:14.842Z,101431.78
2023-06-07T23:08:41.752Z,101432.41
2023-06-07T23:11:09.944Z,101434.16
2023-06-07T23:13:36.674Z,101423.97
2023-06-07T23:16:03.418Z,101428.81
2023-06-07T23:18:30.135Z,101439.44
2023-06-07T23:20:57.017Z,101435.41
2023-06-07T23:23:23.865Z,101433.28
2023-06-07T23:25:50.499Z,101438.16
2023-06-07T23:28:18.551Z,101436.66
2023-06-07T23:30:45.307Z,101434.53
2023-06-07T23:33:12.033Z,101439.41
2023-06-07T23:35:38.703Z,101439.00
2023-06-07T23:38:05.408Z,101437.28
2023-06-07T23:40:32.038Z,101435.78
2023-06-07T23:42:58.857Z,101426.25
2023-06-07T23:45:27.376Z,101433.25
2023-06-07T23:47:54.188Z,101431.13
2023-06-07T23:50:21.172Z,101427.09
2023-06-07T23:52:51.062Z,101428.56
2023-06-07T23:55:17.765Z,101424.75
2023-06-07T23:57:44.491Z,101427.28
